createdAt,value
2022-08-24T00:00:35.187Z,5.83
2022-08-24T00:03:07.315Z,6.10
2022-08-24T00:05:34.940Z,6.00
2022-08-24T00:08:02.732Z,5.90
2022-08-24T00:10:29.792Z,7.37
2022-08-24T00:12:56.823Z,5.47
2022-08-24T00:15:24.825Z,6.43
2022-08-24T00:17:51.760Z,5.57
2022-08-24T00:20:18.681Z,5.77
2022-08-24T00:22:45.873Z,5.87
2022-08-24T00:25:13.865Z,6.53
2022-08-24T00:27:41.587Z,5.90
2022-08-24T00:30:12.553Z,5.93
2022-08-24T00:32:39.510Z,5.30
2022-08-24T00:35:07.525Z,6.67
2022-08-24T00:37:36.261Z,6.13
2022-08-24T00:40:11.598Z,6.20
2022-08-24T00:42:40.526Z,5.83
2022-08-24T00:45:11.044Z,6.63
2022-08-24T00:47:52.234Z,6.10
2022-08-24T00:50:33.400Z,7.00
2022-08-24T00:53:06.282Z,6.50
2022-08-24T00:55:39.192Z,6.30
2022-08-24T00:58:16.945Z,6.47
2022-08-24T01:00:53.024Z,6.50
2022-08-24T01:03:20.104Z,6.97
2022-08-24T01:05:47.960Z,6.13
2022-08-24T01:08:15.517Z,5.73
2022-08-24T01:10:47.064Z,6.47
2022-08-24T01:13:15.585Z,6.00
2022-08-24T01:15:49.007Z,6.70
2022-08-24T01:18:40.639Z,6.50
2022-08-24T01:21:28.609Z,6.00
2022-08-24T01:24:02.395Z,5.93
2022-08-24T01:26:40.264Z,5.77
2022-08-24T01:29:11.757Z,6.03
2022-08-24T01:31:39.239Z,6.23
2022-08-24T01:34:06.793Z,6.50
2022-08-24T01:36:38.114Z,6.73
2022-08-24T01:39:30.024Z,6.27
2022-08-24T01:41:57.629Z,6.60
2022-08-24T01:44:26.882Z,6.20
2022-08-24T01:46:55.756Z,6.93
2022-08-24T01:49:29.379Z,6.20
2022-08-24T01:51:57.263Z,6.37
2022-08-24T01:54:25.355Z,6.90
2022-08-24T01:56:52.773Z,7.13
2022-08-24T01:59:21.477Z,7.70
2022-08-24T02:01:53.765Z,7.63
2022-08-24T02:04:20.933Z,6.83
2022-08-24T02:06:47.908Z,7.90
2022-08-24T02:09:16.129Z,6.63
2022-08-24T02:11:43.332Z,7.50
2022-08-24T02:14:10.294Z,7.43
2022-08-24T02:16:40.565Z,7.20
2022-08-24T02:19:08.623Z,7.30
2022-08-24T02:21:35.874Z,6.57
2022-08-24T02:24:03.570Z,6.77
2022-08-24T02:26:31.562Z,6.83
2022-08-24T02:28:59.409Z,7.10
2022-08-24T02:31:31.188Z,6.73
2022-08-24T02:33:58.410Z,7.37
2022-08-24T02:36:26.685Z,7.13
2022-08-24T02:38:55.246Z,6.63
2022-08-24T02:41:24.690Z,6.80
2022-08-24T02:43:53.148Z,6.57
2022-08-24T02:46:26.072Z,6.57
2022-08-24T02:49:05.345Z,6.83
2022-08-24T02:51:44.469Z,6.50
2022-08-24T02:54:14.178Z,6.67
2022-08-24T02:56:41.361Z,7.50
2022-08-24T02:59:08.281Z,6.97
2022-08-24T03:01:35.352Z,6.77
2022-08-24T03:04:02.733Z,6.80
2022-08-24T03:06:29.668Z,6.73
2022-08-24T03:08:57.058Z,7.47
2022-08-24T03:11:28.032Z,7.33
2022-08-24T03:13:58.274Z,6.23
2022-08-24T03:16:29.652Z,7.13
2022-08-24T03:18:57.334Z,7.30
2022-08-24T03:21:24.320Z,6.80
2022-08-24T03:23:51.626Z,6.80
2022-08-24T03:26:19.496Z,6.37
2022-08-24T03:28:47.025Z,7.43
2022-08-24T03:31:17.137Z,7.93
2022-08-24T03:33:44.214Z,6.50
2022-08-24T03:36:14.295Z,7.33
2022-08-24T03:38:42.741Z,7.03
2022-08-24T03:41:10.492Z,7.23
2022-08-24T03:43:46.653Z,7.97
2022-08-24T03:46:20.402Z,8.17
2022-08-24T03:48:48.683Z,6.90
2022-08-24T03:51:18.860Z,7.77
2022-08-24T03:53:46.250Z,7.43
2022-08-24T03:56:13.473Z,8.47
2022-08-24T03:58:44.014Z,7.57
2022-08-24T04:01:12.230Z,7.67
2022-08-24T04:03:41.640Z,8.37
2022-08-24T04:06:11.690Z,7.73
2022-08-24T04:08:40.175Z,8.00
2022-08-24T04:11:15.366Z,8.50
2022-08-24T04:13:42.687Z,6.87
2022-08-24T04:16:12.886Z,7.20
2022-08-24T04:18:41.318Z,7.10
2022-08-24T04:21:24.745Z,7.67
2022-08-24T04:23:52.658Z,8.07
2022-08-24T04:26:44.119Z,8.27
2022-08-24T04:29:10.568Z,7.93
2022-08-24T04:31:39.141Z,6.77
2022-08-24T04:34:07.540Z,6.97
2022-08-24T04:36:34.785Z,7.60
2022-08-24T04:39:02.677Z,7.73
2022-08-24T04:41:31.362Z,8.90
2022-08-24T04:43:59.738Z,8.60
2022-08-24T04:46:27.767Z,8.40
2022-08-24T04:48:55.440Z,8.03
2022-08-24T04:51:22.581Z,9.03
2022-08-24T04:53:50.892Z,8.57
2022-08-24T04:56:23.798Z,8.33
2022-08-24T04:58:52.242Z,7.83
2022-08-24T05:01:27.016Z,8.27
2022-08-24T05:03:55.820Z,7.57
2022-08-24T05:06:26.042Z,7.70
2022-08-24T05:08:53.713Z,7.23
2022-08-24T05:11:22.336Z,7.27
2022-08-24T05:13:52.420Z,8.03
2022-08-24T05:16:19.658Z,7.53
2022-08-24T05:18:47.292Z,7.50
2022-08-24T05:21:16.747Z,7.73
2022-08-24T05:23:45.254Z,7.70
2022-08-24T05:26:19.269Z,8.57
2022-08-24T05:28:48.290Z,6.80
2022-08-24T05:31:21.670Z,9.97
2022-08-24T05:33:50.110Z,6.80
2022-08-24T05:36:24.342Z,6.97
2022-08-24T05:38:54.780Z,7.30
2022-08-24T05:41:22.333Z,10.07
2022-08-24T05:43:49.336Z,9.67
2022-08-24T05:46:16.757Z,7.50
2022-08-24T05:48:52.462Z,7.93
2022-08-24T05:51:20.618Z,7.83
2022-08-24T05:53:48.026Z,7.43
2022-08-24T05:56:17.321Z,8.27
2022-08-24T05:58:45.016Z,7.93
2022-08-24T06:01:24.705Z,7.47
2022-08-24T06:03:53.549Z,7.47
2022-08-24T06:06:22.492Z,7.80
2022-08-24T06:08:52.237Z,8.35
2022-08-24T06:11:24.704Z,7.83
2022-08-24T06:14:12.070Z,7.60
2022-08-24T06:16:42.932Z,9.05
2022-08-24T06:19:28.424Z,7.40
2022-08-24T06:21:56.222Z,7.20
2022-08-24T06:24:43.429Z,7.43
2022-08-24T06:27:21.124Z,7.15
2022-08-24T06:29:58.705Z,6.63
2022-08-24T06:32:26.309Z,7.20
2022-08-24T06:34:56.817Z,7.80
2022-08-24T06:37:29.217Z,6.75
2022-08-24T06:39:58.275Z,7.50
2022-08-24T06:42:25.594Z,7.53
2022-08-24T06:44:52.944Z,32.10
2022-08-24T06:47:20.250Z,8.13
2022-08-24T06:49:47.181Z,8.90
2022-08-24T06:52:14.216Z,7.65
2022-08-24T06:54:41.426Z,7.07
2022-08-24T06:57:08.409Z,7.88
2022-08-24T06:59:35.386Z,8.05
2022-08-24T07:02:02.584Z,6.40
2022-08-24T07:04:29.607Z,6.55
2022-08-24T07:06:56.871Z,7.22
2022-08-24T07:09:25.046Z,7.28
2022-08-24T07:11:52.861Z,7.07
2022-08-24T07:14:20.257Z,6.88
2022-08-24T07:16:47.434Z,7.53
2022-08-24T07:19:14.389Z,6.80
2022-08-24T07:21:42.293Z,8.18
2022-08-24T07:24:10.673Z,7.40
2022-08-24T07:26:39.362Z,7.35
2022-08-24T07:29:25.054Z,8.00
2022-08-24T07:31:58.534Z,6.80
2022-08-24T07:34:29.277Z,7.63
2022-08-24T07:36:56.763Z,9.55
2022-08-24T07:39:23.894Z,6.72
2022-08-24T07:42:11.439Z,7.43
2022-08-24T07:44:39.338Z,7.50
2022-08-24T07:47:27.285Z,7.88
2022-08-24T07:49:54.010Z,9.82
2022-08-24T07:52:20.971Z,8.02
2022-08-24T07:54:47.932Z,7.28
2022-08-24T07:57:15.260Z,9.82
2022-08-24T07:59:42.232Z,6.85
2022-08-24T08:02:11.197Z,9.13
2022-08-24T08:04:39.558Z,7.05
2022-08-24T08:07:07.464Z,7.57
2022-08-24T08:09:37.065Z,6.63
2022-08-24T08:12:04.452Z,6.57
2022-08-24T08:14:31.408Z,6.32
2022-08-24T08:16:59.920Z,6.57
2022-08-24T08:19:27.129Z,8.00
2022-08-24T08:22:13.086Z,6.75
2022-08-24T08:24:44.726Z,7.10
2022-08-24T08:27:15.162Z,6.88
2022-08-24T08:29:42.796Z,6.60
2022-08-24T08:32:17.123Z,7.22
2022-08-24T08:34:44.848Z,14.52
2022-08-24T08:37:13.174Z,7.85
2022-08-24T08:39:40.695Z,7.65
2022-08-24T08:42:29.566Z,7.55
2022-08-24T08:45:22.926Z,6.47
2022-08-24T08:48:17.290Z,7.85
2022-08-24T08:51:32.215Z,6.80
2022-08-24T08:54:12.229Z,6.53
2022-08-24T08:56:39.124Z,7.97
2022-08-24T08:59:36.991Z,6.82
2022-08-24T09:02:44.963Z,6.25
2022-08-24T09:05:20.654Z,6.82
2022-08-24T09:08:00.555Z,7.18
2022-08-24T09:10:46.191Z,6.80
2022-08-24T09:13:42.511Z,6.72
2022-08-24T09:16:24.748Z,7.05
2022-08-24T09:19:02.448Z,7.50
2022-08-24T09:21:38.001Z,7.63
2022-08-24T09:24:40.337Z,7.65
2022-08-24T09:27:16.169Z,6.75
2022-08-24T09:30:06.200Z,6.85
2022-08-24T09:32:58.971Z,6.88
2022-08-24T09:35:32.084Z,14.93
2022-08-24T09:38:35.726Z,11.32
2022-08-24T09:41:11.385Z,6.20
2022-08-24T09:44:01.409Z,7.80
2022-08-24T09:46:33.040Z,7.28
2022-08-24T09:49:21.742Z,7.53
2022-08-24T09:52:26.648Z,7.03
2022-08-24T09:55:31.693Z,6.50
2022-08-24T09:58:17.478Z,8.10
2022-08-24T10:00:50.687Z,7.25
2022-08-24T10:04:02.225Z,8.15
2022-08-24T10:06:38.097Z,7.90
2022-08-24T10:09:14.229Z,7.95
2022-08-24T10:11:50.354Z,7.32
2022-08-24T10:14:29.628Z,7.35
2022-08-24T10:17:00.382Z,9.48
2022-08-24T10:19:52.002Z,7.88
2022-08-24T10:22:28.278Z,7.75
2022-08-24T10:25:10.460Z,8.07
2022-08-24T10:27:55.257Z,8.38
2022-08-24T10:30:55.336Z,6.72
2022-08-24T10:33:28.650Z,7.50
2022-08-24T10:36:21.885Z,7.82
2022-08-24T10:39:31.509Z,8.05
2022-08-24T10:42:08.494Z,8.25
2022-08-24T10:44:43.776Z,7.82
2022-08-24T10:47:24.529Z,7.13
2022-08-24T10:50:30.789Z,7.93
2022-08-24T10:53:07.212Z,7.30
2022-08-24T10:55:35.607Z,7.90
2022-08-24T10:58:34.885Z,8.35
2022-08-24T11:01:36.832Z,8.23
2022-08-24T11:04:04.555Z,6.85
2022-08-24T11:06:35.654Z,7.75
2022-08-24T11:09:10.541Z,7.45
2022-08-24T11:11:41.018Z,8.05
2022-08-24T11:14:29.425Z,6.70
2022-08-24T11:17:23.890Z,6.93
2022-08-24T11:19:51.773Z,7.32
2022-08-24T11:22:28.903Z,7.45
2022-08-24T11:25:00.098Z,9.10
2022-08-24T11:27:41.160Z,7.43
2022-08-24T11:30:24.766Z,7.45
2022-08-24T11:32:53.847Z,8.15
2022-08-24T11:35:35.536Z,8.38
2022-08-24T11:38:18.254Z,6.85
2022-08-24T11:40:56.284Z,8.18
2022-08-24T11:43:34.571Z,8.00
2022-08-24T11:46:32.701Z,8.45
2022-08-24T11:49:22.603Z,7.38
2022-08-24T11:51:57.918Z,8.05
2022-08-24T11:54:51.275Z,8.85
2022-08-24T11:57:47.635Z,7.43
2022-08-24T12:00:21.887Z,7.47
2022-08-24T12:03:04.359Z,7.20
2022-08-24T12:05:42.545Z,8.27
2022-08-24T12:08:24.017Z,7.75
2022-08-24T12:11:19.410Z,8.35
2022-08-24T12:14:34.614Z,7.13
2022-08-24T12:17:08.885Z,7.95
2022-08-24T12:19:40.616Z,7.28
2022-08-24T12:22:09.665Z,9.35
2022-08-24T12:24:41.321Z,7.72
2022-08-24T12:27:20.421Z,7.57
2022-08-24T12:29:51.663Z,8.38
2022-08-24T12:32:24.478Z,8.43
2022-08-24T12:35:11.547Z,7.72
2022-08-24T12:38:28.044Z,8.27
2022-08-24T12:41:19.786Z,7.00
2022-08-24T12:43:49.015Z,8.43
2022-08-24T12:46:20.542Z,8.80
2022-08-24T12:49:02.571Z,8.85
2022-08-24T12:52:02.447Z,8.30
2022-08-24T12:54:41.312Z,8.73
2022-08-24T12:57:39.661Z,7.25
2022-08-24T13:00:17.068Z,8.25
2022-08-24T13:02:55.004Z,7.70
2022-08-24T13:05:22.377Z,7.13
2022-08-24T13:07:52.541Z,8.20
2022-08-24T13:10:19.471Z,8.82
2022-08-24T13:12:53.301Z,8.13
2022-08-24T13:15:23.568Z,8.75
2022-08-24T13:18:02.649Z,8.77
2022-08-24T13:20:36.394Z,8.88
2022-08-24T13:23:12.852Z,8.07
2022-08-24T13:25:54.088Z,8.50
2022-08-24T13:28:21.053Z,8.52
2022-08-24T13:30:54.303Z,7.88
2022-08-24T13:33:40.014Z,8.60
2022-08-24T13:36:29.024Z,7.88
2022-08-24T13:39:11.025Z,8.60
2022-08-24T13:42:03.142Z,7.22
2022-08-24T13:44:30.205Z,7.60
2022-08-24T13:47:11.639Z,7.78
2022-08-24T13:50:01.890Z,7.22
2022-08-24T13:53:13.472Z,7.60
2022-08-24T13:55:43.645Z,7.80
2022-08-24T13:58:43.363Z,8.07
2022-08-24T14:01:47.378Z,8.38
2022-08-24T14:04:32.346Z,8.60
2022-08-24T14:07:17.737Z,7.95
2022-08-24T14:10:09.670Z,7.72
2022-08-24T14:12:58.465Z,9.85
2022-08-24T14:15:51.370Z,8.00
2022-08-24T14:18:44.508Z,7.45
2022-08-24T14:21:19.085Z,8.35
2022-08-24T14:24:07.915Z,6.90
2022-08-24T14:26:40.761Z,6.90
2022-08-24T14:29:19.705Z,6.93
2022-08-24T14:32:08.520Z,6.97
2022-08-24T14:34:44.868Z,7.97
2022-08-24T14:37:16.384Z,6.80
2022-08-24T14:39:59.614Z,6.80
2022-08-24T14:42:44.041Z,5.68
2022-08-24T14:45:18.307Z,7.57
2022-08-24T14:47:57.710Z,6.97
2022-08-24T14:50:38.244Z,7.18
2022-08-24T14:53:12.528Z,6.50
2022-08-24T14:56:03.372Z,6.93
2022-08-24T14:59:03.560Z,6.38
2022-08-24T15:01:45.606Z,6.72
2022-08-24T15:04:37.657Z,7.10
2022-08-24T15:07:28.824Z,5.82
2022-08-24T15:09:57.904Z,6.60
2022-08-24T15:12:42.781Z,7.35
2022-08-24T15:15:13.383Z,6.40
2022-08-24T15:17:59.425Z,7.15
2022-08-24T15:21:01.930Z,8.13
2022-08-24T15:23:49.442Z,7.40
2022-08-24T15:26:29.158Z,7.10
2022-08-24T15:28:56.888Z,6.88
2022-08-24T15:31:28.054Z,7.32
2022-08-24T15:34:04.340Z,8.18
2022-08-24T15:36:34.095Z,8.10
2022-08-24T15:39:06.198Z,7.43
2022-08-24T15:41:39.641Z,7.93
2022-08-24T15:44:30.230Z,8.00
2022-08-24T15:47:04.328Z,7.80
2022-08-24T15:49:45.069Z,7.68
2022-08-24T15:52:35.027Z,8.18
2022-08-24T15:55:04.416Z,7.28
2022-08-24T15:57:41.209Z,8.90
2022-08-24T16:00:42.610Z,7.80
2022-08-24T16:03:45.158Z,8.13
2022-08-24T16:06:35.602Z,7.82
2022-08-24T16:09:29.896Z,7.75
2022-08-24T16:11:59.240Z,8.25
2022-08-24T16:14:36.814Z,7.78
2022-08-24T16:17:27.581Z,7.75
2022-08-24T16:19:59.058Z,8.55
2022-08-24T16:23:00.718Z,8.23
2022-08-24T16:25:42.719Z,8.15
2022-08-24T16:28:17.626Z,7.80
2022-08-24T16:30:53.375Z,8.00
2022-08-24T16:33:41.955Z,8.30
2022-08-24T16:36:17.983Z,9.45
2022-08-24T16:38:50.552Z,7.82
2022-08-24T16:41:24.196Z,8.55
2022-08-24T16:43:51.466Z,8.30
2022-08-24T16:46:21.361Z,8.77
2022-08-24T16:48:48.551Z,9.00
2022-08-24T16:51:16.079Z,10.00
2022-08-24T16:53:43.723Z,7.35
2022-08-24T16:56:13.652Z,7.90
2022-08-24T16:58:45.356Z,10.30
2022-08-24T17:01:13.823Z,7.65
2022-08-24T17:03:41.773Z,8.40
2022-08-24T17:06:12.339Z,9.27
2022-08-24T17:08:40.629Z,8.60
2022-08-24T17:11:08.557Z,7.78
2022-08-24T17:13:51.083Z,8.27
2022-08-24T17:16:20.604Z,7.57
2022-08-24T17:18:47.869Z,8.77
2022-08-24T17:21:15.100Z,7.68
2022-08-24T17:23:43.328Z,8.43
2022-08-24T17:26:19.280Z,7.18
2022-08-24T17:28:51.907Z,6.88
2022-08-24T17:31:19.064Z,9.10
2022-08-24T17:33:46.010Z,7.55
2022-08-24T17:36:24.289Z,8.82
2022-08-24T17:38:55.862Z,8.48
2022-08-24T17:41:25.210Z,8.77
2022-08-24T17:43:53.315Z,7.82
2022-08-24T17:46:20.791Z,7.88
2022-08-24T17:48:48.241Z,8.18
2022-08-24T17:51:15.959Z,8.43
2022-08-24T17:53:43.081Z,8.13
2022-08-24T17:56:13.316Z,8.57
2022-08-24T17:59:00.725Z,7.78
2022-08-24T18:01:28.715Z,8.32
2022-08-24T18:03:55.898Z,8.18
2022-08-24T18:06:24.519Z,9.13
2022-08-24T18:08:52.720Z,7.32
2022-08-24T18:11:22.753Z,7.40
2022-08-24T18:13:54.381Z,7.63
2022-08-24T18:16:24.912Z,7.43
2022-08-24T18:18:54.024Z,7.80
2022-08-24T18:21:22.028Z,8.52
2022-08-24T18:23:50.296Z,7.88
2022-08-24T18:26:25.912Z,7.30
2022-08-24T18:28:58.155Z,8.70
2022-08-24T18:31:27.807Z,7.38
2022-08-24T18:33:54.769Z,7.70
2022-08-24T18:36:21.862Z,9.32
2022-08-24T18:38:48.907Z,7.63
2022-08-24T18:41:16.535Z,7.20
2022-08-24T18:43:43.661Z,7.95
2022-08-24T18:46:10.903Z,6.90
2022-08-24T18:48:37.954Z,8.25
2022-08-24T18:51:05.566Z,7.57
2022-08-24T18:53:35.424Z,8.65
2022-08-24T18:56:08.112Z,7.32
2022-08-24T18:58:39.172Z,9.20
2022-08-24T19:01:06.585Z,9.55
2022-08-24T19:03:33.969Z,9.25
2022-08-24T19:06:01.188Z,7.93
2022-08-24T19:08:28.166Z,8.93
2022-08-24T19:10:56.192Z,7.68
2022-08-24T19:13:23.445Z,7.30
2022-08-24T19:15:50.992Z,6.88
2022-08-24T19:18:20.432Z,7.25
2022-08-24T19:20:50.393Z,6.75
2022-08-24T19:23:24.730Z,7.40
2022-08-24T19:25:53.458Z,6.47
2022-08-24T19:28:21.437Z,8.43
2022-08-24T19:30:49.075Z,6.65
2022-08-24T19:33:23.460Z,6.28
2022-08-24T19:35:52.500Z,6.22
2022-08-24T19:38:24.812Z,6.80
2022-08-24T19:40:54.649Z,5.70
2022-08-24T19:43:23.793Z,5.70
2022-08-24T19:46:04.040Z,5.45
2022-08-24T19:48:37.302Z,5.40
2022-08-24T19:51:06.894Z,5.35
2022-08-24T19:53:36.933Z,5.25
2022-08-24T19:56:05.543Z,5.43
2022-08-24T19:58:57.969Z,5.63
2022-08-24T20:01:34.839Z,6.00
2022-08-24T20:04:03.413Z,5.15
2022-08-24T20:06:34.329Z,5.45
2022-08-24T20:09:02.463Z,5.28
2022-08-24T20:11:29.425Z,5.47
2022-08-24T20:13:56.682Z,5.28
2022-08-24T20:16:35.742Z,4.70
2022-08-24T20:19:03.797Z,4.53
2022-08-24T20:21:31.795Z,4.20
2022-08-24T20:24:02.668Z,3.90
2022-08-24T20:26:34.596Z,3.45
2022-08-24T20:29:02.603Z,4.10
2022-08-24T20:31:29.941Z,3.47
2022-08-24T20:33:57.447Z,2.95
2022-08-24T20:36:40.858Z,3.00
2022-08-24T20:39:11.733Z,3.38
2022-08-24T20:41:40.568Z,2.92
2022-08-24T20:44:09.221Z,2.97
2022-08-24T20:46:38.144Z,3.00
2022-08-24T20:49:07.252Z,4.45
2022-08-24T20:51:34.320Z,3.45
2022-08-24T20:54:06.146Z,3.50
2022-08-24T20:56:37.740Z,3.80
2022-08-24T20:59:11.314Z,3.50
2022-08-24T21:01:42.830Z,4.43
2022-08-24T21:04:10.256Z,3.85
2022-08-24T21:06:39.040Z,4.53
2022-08-24T21:09:06.981Z,4.00
2022-08-24T21:11:37.659Z,3.20
2022-08-24T21:14:08.115Z,3.50
2022-08-24T21:16:39.500Z,3.80
2022-08-24T21:19:08.144Z,3.03
2022-08-24T21:21:35.270Z,3.30
2022-08-24T21:24:04.479Z,3.03
2022-08-24T21:26:33.241Z,3.57
2022-08-24T21:29:00.481Z,4.23
2022-08-24T21:31:28.346Z,3.43
2022-08-24T21:34:14.003Z,3.70
2022-08-24T21:36:41.845Z,3.72
2022-08-24T21:39:11.174Z,3.10
2022-08-24T21:41:39.368Z,3.10
2022-08-24T21:44:06.573Z,3.60
2022-08-24T21:46:37.677Z,4.40
2022-08-24T21:49:05.141Z,3.27
2022-08-24T21:51:32.537Z,3.70
2022-08-24T21:54:00.592Z,3.77
2022-08-24T21:56:31.761Z,3.63
2022-08-24T21:58:59.333Z,4.10
2022-08-24T22:01:26.844Z,3.80
2022-08-24T22:03:53.885Z,4.13
2022-08-24T22:06:21.225Z,3.85
2022-08-24T22:08:48.167Z,4.15
2022-08-24T22:11:18.277Z,3.77
2022-08-24T22:13:46.638Z,3.95
2022-08-24T22:16:13.844Z,3.63
2022-08-24T22:18:40.954Z,4.10
2022-08-24T22:21:13.868Z,4.40
2022-08-24T22:23:41.005Z,4.97
2022-08-24T22:26:09.352Z,4.35
2022-08-24T22:28:38.935Z,4.45
2022-08-24T22:31:27.608Z,4.90
2022-08-24T22:33:56.938Z,4.80
2022-08-24T22:36:25.706Z,4.40
2022-08-24T22:38:54.522Z,4.57
2022-08-24T22:41:22.140Z,4.87
2022-08-24T22:44:08.368Z,4.50
2022-08-24T22:46:35.982Z,3.60
2022-08-24T22:49:04.735Z,3.47
2022-08-24T22:51:32.134Z,3.63
2022-08-24T22:54:00.021Z,3.60
2022-08-24T22:56:30.602Z,3.73
2022-08-24T22:58:58.094Z,3.57
2022-08-24T23:01:30.218Z,3.57
2022-08-24T23:03:59.813Z,3.60
2022-08-24T23:06:27.862Z,3.73
2022-08-24T23:08:55.314Z,3.93
2022-08-24T23:11:24.693Z,3.50
2022-08-24T23:13:51.877Z,3.63
2022-08-24T23:16:18.876Z,3.30
2022-08-24T23:19:05.030Z,3.07
2022-08-24T23:21:32.195Z,3.00
2022-08-24T23:24:05.670Z,3.30
2022-08-24T23:26:32.620Z,2.80
2022-08-24T23:29:00.460Z,3.07
2022-08-24T23:31:27.482Z,2.77
2022-08-24T23:33:54.465Z,3.50
2022-08-24T23:36:23.657Z,2.90
2022-08-24T23:38:53.671Z,2.80
2022-08-24T23:41:28.205Z,2.83
2022-08-24T23:43:55.917Z,3.13
2022-08-24T23:46:22.959Z,3.73
2022-08-24T23:48:51.066Z,3.47
2022-08-24T23:51:23.800Z,2.90
2022-08-24T23:53:51.478Z,3.00
2022-08-24T23:56:21.966Z,2.97
2022-08-24T23:58:49.850Z,3.40
